createdAt,value
2023-03-19T00:02:03.995Z,11.13
2023-03-19T00:04:33.814Z,10.91
2023-03-19T00:06:55.552Z,10.94
2023-03-19T00:09:17.710Z,11.06
2023-03-19T00:11:39.197Z,11.12
2023-03-19T00:14:00.760Z,11.16
2023-03-19T00:16:22.310Z,11.24
2023-03-19T00:18:43.763Z,11.04
2023-03-19T00:21:05.871Z,11.09
2023-03-19T00:23:27.292Z,10.93
2023-03-19T00:25:48.967Z,10.99
2023-03-19T00:28:10.570Z,11.09
2023-03-19T00:30:32.079Z,11.17
2023-03-19T00:32:53.591Z,11.20
2023-03-19T00:35:15.090Z,11.22
2023-03-19T00:37:37.388Z,11.33
2023-03-19T00:39:58.826Z,11.34
2023-03-19T00:42:20.282Z,11.34
2023-03-19T00:44:41.929Z,11.29
2023-03-19T00:47:03.438Z,11.14
2023-03-19T00:49:25.028Z,11.20
2023-03-19T00:51:46.592Z,11.28
2023-03-19T00:54:08.007Z,11.33
2023-03-19T00:56:29.561Z,11.33
2023-03-19T00:58:51.071Z,11.39
2023-03-19T01:01:16.267Z,11.44
2023-03-19T01:03:38.143Z,11.46
2023-03-19T01:05:59.676Z,11.52
2023-03-19T01:08:21.276Z,11.53
2023-03-19T01:10:43.197Z,11.31
2023-03-19T01:13:04.916Z,11.26
2023-03-19T01:15:26.720Z,11.33
2023-03-19T01:17:48.225Z,11.41
2023-03-19T01:20:14.136Z,11.44
2023-03-19T01:22:37.150Z,11.45
2023-03-19T01:24:58.684Z,11.41
2023-03-19T01:27:21.124Z,11.44
2023-03-19T01:29:42.604Z,11.39
2023-03-19T01:32:04.217Z,11.40
2023-03-19T01:34:25.693Z,11.05
2023-03-19T01:36:47.147Z,11.15
2023-03-19T01:39:09.024Z,11.16
2023-03-19T01:41:30.804Z,11.18
2023-03-19T01:43:52.277Z,11.18
2023-03-19T01:46:22.184Z,11.19
2023-03-19T01:48:50.308Z,11.22
2023-03-19T01:51:15.796Z,11.10
2023-03-19T01:53:41.675Z,11.08
2023-03-19T01:56:12.930Z,10.96
2023-03-19T01:58:34.607Z,10.89
2023-03-19T02:00:57.233Z,10.95
2023-03-19T02:03:18.913Z,10.87
2023-03-19T02:05:42.504Z,10.69
2023-03-19T02:08:07.584Z,10.65
2023-03-19T02:10:30.864Z,10.64
2023-03-19T02:12:52.561Z,10.75
2023-03-19T02:15:14.618Z,10.63
2023-03-19T02:17:36.671Z,10.43
2023-03-19T02:20:18.629Z,10.38
2023-03-19T02:22:52.133Z,10.42
2023-03-19T02:25:21.758Z,10.46
2023-03-19T02:27:43.756Z,10.54
2023-03-19T02:30:24.472Z,10.54
2023-03-19T02:32:45.950Z,10.49
2023-03-19T02:35:10.072Z,10.47
2023-03-19T02:37:33.625Z,10.44
2023-03-19T02:40:04.522Z,10.40
2023-03-19T02:42:28.162Z,10.31
2023-03-19T02:44:50.572Z,10.21
2023-03-19T02:47:12.304Z,10.21
2023-03-19T02:49:33.796Z,10.20
2023-03-19T02:51:55.279Z,10.21
2023-03-19T02:54:16.739Z,10.21
2023-03-19T02:56:38.185Z,10.08
2023-03-19T02:58:59.611Z,9.78
2023-03-19T03:01:21.468Z,9.87
2023-03-19T03:03:42.994Z,9.91
2023-03-19T03:06:04.719Z,9.99
2023-03-19T03:12:02.102Z,10.11
2023-03-19T03:14:24.776Z,9.91
2023-03-19T03:16:46.476Z,9.96
2023-03-19T03:19:08.015Z,9.98
2023-03-19T03:21:29.609Z,10.07
2023-03-19T03:23:51.517Z,10.11
2023-03-19T03:26:13.163Z,10.05
2023-03-19T03:28:34.665Z,9.88
2023-03-19T03:31:00.375Z,9.98
2023-03-19T03:33:21.817Z,10.05
2023-03-19T03:35:43.531Z,10.13
2023-03-19T03:38:05.158Z,10.11
2023-03-19T03:40:27.445Z,10.08
2023-03-19T03:42:48.933Z,10.01
2023-03-19T03:45:11.089Z,9.92
2023-03-19T03:47:32.616Z,9.96
2023-03-19T03:49:54.111Z,9.97
2023-03-19T03:52:15.777Z,9.95
2023-03-19T03:54:37.244Z,9.80
2023-03-19T03:56:58.722Z,9.87
2023-03-19T03:59:20.595Z,9.92
2023-03-19T04:01:42.856Z,9.96
2023-03-19T04:04:05.019Z,10.00
2023-03-19T04:06:27.931Z,10.02
2023-03-19T04:08:49.386Z,10.05
2023-03-19T04:11:11.038Z,9.93
2023-03-19T04:13:36.695Z,9.89
2023-03-19T04:15:58.178Z,9.72
2023-03-19T04:18:19.640Z,9.89
2023-03-19T04:20:41.421Z,9.92
2023-03-19T04:23:03.421Z,9.92
2023-03-19T04:25:25.151Z,9.73
2023-03-19T04:27:46.945Z,9.79
2023-03-19T04:30:09.923Z,9.82
2023-03-19T04:32:31.482Z,9.71
2023-03-19T04:34:52.956Z,9.69
2023-03-19T04:37:14.411Z,9.69
2023-03-19T04:39:36.854Z,9.66
2023-03-19T04:41:58.637Z,9.70
2023-03-19T04:44:20.333Z,9.52
2023-03-19T04:46:42.103Z,9.48
2023-03-19T04:49:03.549Z,9.51
2023-03-19T04:51:25.029Z,9.40
2023-03-19T04:53:46.531Z,9.31
2023-03-19T04:56:08.756Z,9.48
2023-03-19T04:58:30.407Z,9.46
2023-03-19T05:00:52.485Z,9.43
2023-03-19T05:03:14.966Z,9.54
2023-03-19T05:05:36.432Z,9.61
2023-03-19T05:07:58.187Z,9.65
2023-03-19T05:10:19.794Z,9.60
2023-03-19T05:12:41.589Z,9.66
2023-03-19T05:15:05.230Z,9.48
2023-03-19T05:17:26.752Z,9.42
2023-03-19T05:19:48.679Z,9.48
2023-03-19T05:22:10.228Z,9.48
2023-03-19T05:24:31.733Z,9.53
2023-03-19T05:26:53.202Z,9.63
2023-03-19T05:29:14.823Z,9.66
2023-03-19T05:31:38.210Z,9.71
2023-03-19T05:33:59.697Z,9.78
2023-03-19T05:36:21.255Z,9.79
2023-03-19T05:38:42.725Z,9.83
2023-03-19T05:41:05.659Z,9.74
2023-03-19T05:43:27.448Z,9.63
2023-03-19T05:45:54.804Z,9.78
2023-03-19T05:48:17.177Z,9.81
2023-03-19T05:50:38.837Z,9.86
2023-03-19T05:53:00.326Z,9.91
2023-03-19T05:55:21.794Z,9.94
2023-03-19T05:57:43.243Z,10.01
2023-03-19T06:00:06.951Z,9.91
2023-03-19T06:02:28.439Z,9.71
2023-03-19T06:04:49.943Z,9.84
2023-03-19T06:07:11.531Z,9.96
2023-03-19T06:09:33.087Z,9.91
2023-03-19T06:11:54.518Z,10.00
2023-03-19T06:14:16.158Z,10.11
2023-03-19T06:16:37.631Z,10.15
2023-03-19T06:18:59.198Z,10.16
2023-03-19T06:21:20.792Z,10.24
2023-03-19T06:23:42.251Z,10.31
2023-03-19T06:26:04.639Z,10.32
2023-03-19T06:28:26.249Z,10.48
2023-03-19T06:30:47.774Z,10.54
2023-03-19T06:33:09.406Z,10.54
2023-03-19T06:35:31.271Z,10.65
2023-03-19T06:37:52.861Z,10.75
2023-03-19T06:40:14.901Z,10.84
2023-03-19T06:42:36.523Z,10.94
2023-03-19T06:44:58.004Z,11.03
2023-03-19T06:47:20.040Z,11.10
2023-03-19T06:49:41.793Z,11.17
2023-03-19T06:52:03.858Z,11.12
2023-03-19T06:54:25.331Z,11.05
2023-03-19T06:56:47.664Z,11.21
2023-03-19T06:59:13.080Z,11.35
2023-03-19T07:01:34.583Z,11.52
2023-03-19T07:03:57.346Z,11.66
2023-03-19T07:06:18.937Z,11.77
2023-03-19T07:08:46.049Z,11.85
2023-03-19T07:11:08.108Z,11.91
2023-03-19T07:13:29.639Z,11.98
2023-03-19T07:15:51.099Z,11.88
2023-03-19T07:18:12.572Z,11.91
2023-03-19T07:20:34.251Z,11.98
2023-03-19T07:22:55.836Z,12.15
2023-03-19T07:25:17.447Z,12.03
2023-03-19T07:27:38.899Z,11.84
2023-03-19T07:30:00.523Z,11.97
2023-03-19T07:32:23.502Z,12.22
2023-03-19T07:34:44.933Z,12.37
2023-03-19T07:37:06.819Z,12.49
2023-03-19T07:39:28.577Z,12.61
2023-03-19T07:41:50.034Z,12.76
2023-03-19T07:44:11.463Z,12.80
2023-03-19T07:46:32.951Z,12.86
2023-03-19T07:48:54.430Z,12.89
2023-03-19T07:51:16.021Z,13.05
2023-03-19T07:53:37.475Z,13.20
2023-03-19T07:55:59.062Z,13.35
2023-03-19T07:58:20.853Z,13.32
2023-03-19T08:00:42.625Z,13.45
2023-03-19T08:03:04.390Z,13.50
2023-03-19T08:05:25.947Z,13.36
2023-03-19T08:07:49.484Z,13.50
2023-03-19T08:10:11.980Z,13.62
2023-03-19T08:12:34.628Z,13.73
2023-03-19T08:14:56.137Z,13.71
2023-03-19T08:17:17.640Z,13.78
2023-03-19T08:19:39.195Z,13.92
2023-03-19T08:22:00.773Z,13.93
2023-03-19T08:24:22.506Z,14.10
2023-03-19T08:26:44.018Z,14.15
2023-03-19T08:29:06.555Z,14.07
2023-03-19T08:31:28.299Z,14.23
2023-03-19T08:33:49.754Z,14.38
2023-03-19T08:36:13.899Z,14.56
2023-03-19T08:38:35.403Z,14.76
2023-03-19T08:41:02.170Z,14.83
2023-03-19T08:43:23.673Z,14.89
2023-03-19T08:45:45.271Z,14.94
2023-03-19T08:48:06.754Z,15.01
2023-03-19T08:50:28.218Z,15.14
2023-03-19T08:52:50.155Z,15.10
2023-03-19T08:55:11.649Z,15.17
2023-03-19T08:57:33.452Z,15.19
2023-03-19T08:59:54.901Z,15.22
2023-03-19T09:02:16.395Z,15.25
2023-03-19T09:04:41.262Z,15.14
2023-03-19T09:07:02.949Z,15.21
2023-03-19T09:09:24.873Z,15.25
2023-03-19T09:11:46.812Z,15.24
2023-03-19T09:14:08.291Z,15.56
2023-03-19T09:16:31.333Z,15.62
2023-03-19T09:18:52.875Z,15.80
2023-03-19T09:21:14.354Z,16.06
2023-03-19T09:23:36.201Z,16.20
2023-03-19T09:25:57.754Z,16.40
2023-03-19T09:28:19.546Z,16.67
2023-03-19T09:30:43.374Z,16.66
2023-03-19T09:33:05.754Z,16.52
2023-03-19T09:35:31.383Z,16.54
2023-03-19T09:37:52.851Z,16.80
2023-03-19T09:40:24.847Z,17.12
2023-03-19T09:43:35.035Z,17.58
2023-03-19T09:45:57.671Z,17.88
2023-03-19T09:48:36.007Z,17.81
2023-03-19T09:50:59.341Z,17.65
2023-03-19T09:53:26.966Z,17.45
2023-03-19T09:55:51.474Z,17.53
2023-03-19T09:58:27.965Z,17.62
2023-03-19T10:00:51.733Z,17.68
2023-03-19T10:03:43.814Z,18.00
2023-03-19T10:06:29.425Z,18.12
2023-03-19T10:09:16.891Z,18.19
2023-03-19T10:12:02.922Z,18.11
2023-03-19T10:14:45.532Z,18.05
2023-03-19T10:17:13.046Z,18.18
2023-03-19T10:19:43.173Z,18.29
2023-03-19T10:22:12.707Z,18.56
2023-03-19T10:24:43.865Z,18.70
2023-03-19T10:27:12.846Z,18.77
2023-03-19T10:29:34.518Z,18.92
2023-03-19T10:32:14.929Z,19.21
2023-03-19T10:34:40.996Z,19.24
2023-03-19T10:37:13.348Z,19.38
2023-03-19T10:39:37.803Z,18.81
2023-03-19T10:42:37.000Z,18.92
2023-03-19T10:45:20.219Z,19.66
2023-03-19T10:47:44.459Z,19.45
2023-03-19T10:50:09.489Z,19.58
2023-03-19T10:52:35.211Z,19.82
2023-03-19T10:55:03.315Z,19.21
2023-03-19T10:57:29.467Z,19.39
2023-03-19T10:59:50.939Z,19.63
2023-03-19T11:02:27.886Z,19.81
2023-03-19T11:05:07.629Z,19.92
2023-03-19T11:07:33.163Z,20.25
2023-03-19T11:09:55.957Z,20.27
2023-03-19T11:12:23.036Z,20.49
2023-03-19T11:14:47.859Z,20.59
2023-03-19T11:17:20.541Z,20.62
2023-03-19T11:19:49.054Z,20.93
2023-03-19T11:22:23.004Z,21.04
2023-03-19T11:24:56.934Z,21.08
2023-03-19T11:27:18.744Z,21.03
2023-03-19T11:29:43.438Z,20.85
2023-03-19T11:32:37.466Z,20.54
2023-03-19T11:35:14.046Z,20.33
2023-03-19T11:37:55.546Z,20.49
2023-03-19T11:40:42.889Z,20.36
2023-03-19T11:43:39.858Z,20.43
2023-03-19T11:46:25.732Z,20.11
2023-03-19T11:49:09.070Z,20.31
2023-03-19T11:51:41.668Z,20.10
2023-03-19T11:54:18.056Z,20.08
2023-03-19T11:57:01.040Z,19.54
2023-03-19T11:59:43.767Z,19.89
2023-03-19T12:02:30.629Z,20.17
2023-03-19T12:05:03.055Z,20.10
2023-03-19T12:07:46.232Z,20.15
2023-03-19T12:10:30.391Z,20.01
2023-03-19T12:13:02.695Z,19.65
2023-03-19T12:15:55.821Z,19.73
2023-03-19T12:19:05.223Z,19.53
2023-03-19T12:21:48.155Z,20.04
2023-03-19T12:24:24.886Z,19.86
2023-03-19T12:27:22.035Z,19.74
2023-03-19T12:30:03.032Z,20.06
2023-03-19T12:33:07.348Z,20.22
2023-03-19T12:35:35.803Z,19.98
2023-03-19T12:38:12.099Z,20.15
2023-03-19T12:40:52.692Z,19.96
2023-03-19T12:43:32.696Z,19.62
2023-03-19T12:46:12.058Z,19.79
2023-03-19T12:48:42.704Z,19.82
2023-03-19T12:51:09.613Z,20.35
2023-03-19T12:53:35.663Z,20.65
2023-03-19T12:56:01.602Z,20.63
2023-03-19T12:58:37.670Z,20.35
2023-03-19T13:01:08.950Z,19.95
2023-03-19T13:03:44.635Z,19.95
2023-03-19T13:06:20.040Z,19.81
2023-03-19T13:08:52.218Z,19.75
2023-03-19T13:11:44.617Z,19.78
2023-03-19T13:14:26.721Z,19.78
2023-03-19T13:17:09.788Z,20.00
2023-03-19T13:19:35.629Z,20.27
2023-03-19T13:22:02.273Z,20.02
2023-03-19T13:24:52.156Z,19.95
2023-03-19T13:27:24.302Z,20.18
2023-03-19T13:30:07.363Z,20.12
2023-03-19T13:32:37.186Z,19.97
2023-03-19T13:35:23.919Z,19.60
2023-03-19T13:37:47.075Z,19.42
2023-03-19T13:40:54.583Z,19.26
2023-03-19T13:43:28.977Z,19.32
2023-03-19T13:46:04.593Z,19.51
2023-03-19T13:48:28.827Z,19.61
2023-03-19T13:51:23.718Z,19.51
2023-03-19T13:54:15.338Z,19.36
2023-03-19T13:57:04.378Z,19.21
2023-03-19T13:59:27.745Z,18.65
2023-03-19T14:01:49.900Z,18.21
2023-03-19T14:04:20.611Z,17.91
2023-03-19T14:06:46.163Z,17.82
2023-03-19T14:09:43.914Z,17.45
2023-03-19T14:12:11.699Z,17.21
2023-03-19T14:14:33.277Z,17.05
2023-03-19T14:16:55.064Z,17.09
2023-03-19T14:19:20.978Z,17.04
2023-03-19T14:21:47.510Z,17.12
2023-03-19T14:27:21.569Z,17.26
2023-03-19T14:29:45.607Z,17.21
2023-03-19T14:32:15.589Z,17.22
2023-03-19T14:34:42.767Z,17.26
2023-03-19T14:37:25.101Z,17.25
2023-03-19T14:39:52.885Z,17.41
2023-03-19T14:42:26.269Z,17.25
2023-03-19T14:45:18.207Z,17.35
2023-03-19T14:47:56.930Z,17.17
2023-03-19T14:50:33.648Z,17.17
2023-03-19T14:53:04.742Z,17.14
2023-03-19T14:55:35.223Z,17.08
2023-03-19T14:57:56.857Z,17.17
2023-03-19T15:00:19.468Z,18.39
2023-03-19T15:02:47.862Z,18.26
2023-03-19T15:05:16.679Z,19.61
2023-03-19T15:07:47.754Z,19.66
2023-03-19T15:10:17.679Z,19.55
2023-03-19T15:12:43.526Z,19.98
2023-03-19T15:15:22.333Z,20.90
2023-03-19T15:17:49.227Z,21.37
2023-03-19T15:20:21.852Z,20.69
2023-03-19T15:22:43.404Z,20.43
2023-03-19T15:25:10.685Z,20.48
2023-03-19T15:27:32.347Z,20.48
2023-03-19T15:29:59.693Z,20.46
2023-03-19T15:32:52.008Z,19.94
2023-03-19T15:35:15.980Z,19.73
2023-03-19T15:37:42.121Z,19.35
2023-03-19T15:40:09.113Z,19.32
2023-03-19T15:42:31.504Z,19.38
2023-03-19T15:44:58.043Z,19.48
2023-03-19T15:47:27.411Z,19.60
2023-03-19T15:50:12.542Z,19.86
2023-03-19T15:52:38.231Z,20.11
2023-03-19T15:55:01.577Z,19.88
2023-03-19T15:57:24.886Z,19.70
2023-03-19T15:59:46.927Z,19.63
2023-03-19T16:02:20.720Z,19.90
2023-03-19T16:05:14.092Z,20.21
2023-03-19T16:07:31.516Z,20.43
2023-03-19T16:09:53.529Z,20.37
2023-03-19T16:12:41.146Z,20.30
2023-03-19T16:15:20.843Z,20.27
2023-03-19T16:17:42.464Z,19.94
2023-03-19T16:20:04.726Z,19.85
2023-03-19T16:22:31.440Z,19.66
2023-03-19T16:24:53.856Z,19.55
2023-03-19T16:27:21.261Z,19.42
2023-03-19T16:29:45.972Z,19.42
2023-03-19T16:32:25.543Z,19.24
2023-03-19T16:35:19.896Z,19.03
2023-03-19T16:37:46.754Z,19.15
2023-03-19T16:40:14.038Z,19.26
2023-03-19T16:42:35.606Z,19.22
2023-03-19T16:44:57.270Z,19.19
2023-03-19T16:47:18.743Z,19.13
2023-03-19T16:49:40.192Z,19.07
2023-03-19T16:52:01.689Z,19.01
2023-03-19T16:54:23.842Z,18.88
2023-03-19T16:56:45.547Z,18.82
2023-03-19T16:59:17.160Z,18.72
2023-03-19T17:01:38.825Z,18.52
2023-03-19T17:04:00.344Z,18.46
2023-03-19T17:06:22.047Z,18.36
2023-03-19T17:08:44.280Z,18.25
2023-03-19T17:11:06.197Z,18.19
2023-03-19T17:13:30.143Z,18.16
2023-03-19T17:15:51.749Z,18.04
2023-03-19T17:18:18.997Z,17.79
2023-03-19T17:21:09.071Z,17.58
2023-03-19T17:23:30.804Z,17.19
2023-03-19T17:25:53.697Z,17.25
2023-03-19T17:28:15.696Z,17.10
2023-03-19T17:30:38.425Z,17.01
2023-03-19T17:33:00.322Z,16.94
2023-03-19T17:35:22.576Z,16.93
2023-03-19T17:37:45.760Z,16.90
2023-03-19T17:40:18.958Z,16.65
2023-03-19T17:42:40.731Z,16.51
2023-03-19T17:45:02.223Z,16.34
2023-03-19T17:47:23.770Z,16.25
2023-03-19T17:49:46.255Z,16.30
2023-03-19T17:52:16.715Z,16.13
2023-03-19T17:54:38.267Z,15.92
2023-03-19T17:56:59.733Z,15.74
2023-03-19T17:59:22.077Z,15.69
2023-03-19T18:01:43.831Z,15.73
2023-03-19T18:04:05.730Z,15.64
2023-03-19T18:06:33.598Z,15.29
2023-03-19T18:08:55.313Z,15.16
2023-03-19T18:11:17.213Z,15.13
2023-03-19T18:13:39.011Z,14.78
2023-03-19T18:16:00.686Z,14.77
2023-03-19T18:18:22.157Z,14.90
2023-03-19T18:20:44.834Z,15.00
2023-03-19T18:23:06.707Z,15.13
2023-03-19T18:25:28.712Z,15.19
2023-03-19T18:27:50.854Z,15.17
2023-03-19T18:30:16.149Z,15.19
2023-03-19T18:32:40.885Z,15.22
2023-03-19T18:35:03.503Z,15.23
2023-03-19T18:37:24.989Z,15.28
2023-03-19T18:39:46.838Z,15.27
2023-03-19T18:42:12.160Z,15.23
2023-03-19T18:44:33.707Z,15.15
2023-03-19T18:46:55.288Z,15.06
2023-03-19T18:49:23.259Z,15.13
2023-03-19T18:51:59.041Z,15.15
2023-03-19T18:54:22.557Z,14.97
2023-03-19T18:56:45.296Z,15.00
2023-03-19T18:59:24.731Z,15.06
2023-03-19T19:01:46.801Z,15.09
2023-03-19T19:04:08.365Z,14.98
2023-03-19T19:06:46.846Z,14.90
2023-03-19T19:09:08.640Z,14.74
2023-03-19T19:11:30.307Z,14.51
2023-03-19T19:13:58.640Z,14.44
2023-03-19T19:16:38.021Z,14.46
2023-03-19T19:18:59.540Z,14.57
2023-03-19T19:21:21.136Z,14.72
2023-03-19T19:23:42.870Z,14.72
2023-03-19T19:26:05.492Z,14.73
2023-03-19T19:28:36.699Z,14.71
2023-03-19T19:31:00.334Z,14.65
2023-03-19T19:33:24.643Z,14.61
2023-03-19T19:35:46.225Z,14.50
2023-03-19T19:38:07.737Z,14.27
2023-03-19T19:40:31.317Z,14.29
2023-03-19T19:42:53.495Z,14.36
2023-03-19T19:45:27.537Z,14.35
2023-03-19T19:47:49.096Z,14.32
2023-03-19T19:50:17.706Z,14.31
2023-03-19T19:52:39.149Z,14.28
2023-03-19T19:55:00.589Z,14.20
2023-03-19T19:57:24.791Z,14.20
2023-03-19T19:59:46.615Z,14.16
2023-03-19T20:02:19.902Z,14.18
2023-03-19T20:04:41.880Z,14.05
2023-03-19T20:07:03.431Z,14.12
2023-03-19T20:09:24.997Z,14.04
2023-03-19T20:11:46.881Z,14.03
2023-03-19T20:14:12.155Z,13.92
2023-03-19T20:16:33.626Z,13.80
2023-03-19T20:18:55.373Z,13.75
2023-03-19T20:21:17.140Z,13.70
2023-03-19T20:23:40.606Z,13.70
2023-03-19T20:26:02.570Z,13.59
2023-03-19T20:28:32.469Z,13.69
2023-03-19T20:30:54.542Z,13.64
2023-03-19T20:33:18.078Z,13.54
2023-03-19T20:35:39.638Z,13.52
2023-03-19T20:38:02.601Z,13.39
2023-03-19T20:40:31.144Z,13.17
2023-03-19T20:42:52.863Z,12.84
2023-03-19T20:45:18.072Z,12.67
2023-03-19T20:47:39.524Z,12.76
2023-03-19T20:50:01.988Z,12.77
2023-03-19T20:52:23.490Z,12.69
2023-03-19T20:54:45.714Z,12.71
2023-03-19T20:57:15.646Z,12.48
2023-03-19T20:59:37.129Z,12.31
2023-03-19T21:01:58.663Z,12.11
2023-03-19T21:04:20.916Z,11.99
2023-03-19T21:06:52.437Z,12.19
2023-03-19T21:09:15.022Z,12.41
2023-03-19T21:11:39.341Z,12.52
2023-03-19T21:14:01.519Z,12.62
2023-03-19T21:16:25.765Z,12.70
2023-03-19T21:18:47.915Z,12.72
2023-03-19T21:21:12.166Z,12.79
2023-03-19T21:23:37.214Z,12.85
2023-03-19T21:26:09.288Z,12.87
2023-03-19T21:28:38.327Z,13.02
2023-03-19T21:31:00.176Z,13.07
2023-03-19T21:33:23.368Z,12.86
2023-03-19T21:35:44.841Z,12.71
2023-03-19T21:38:06.334Z,12.74
2023-03-19T21:40:30.999Z,12.72
2023-03-19T21:42:56.816Z,12.64
2023-03-19T21:45:34.079Z,12.76
2023-03-19T21:48:02.156Z,12.88
2023-03-19T21:50:23.596Z,12.94
2023-03-19T21:52:57.911Z,12.89
2023-03-19T21:55:21.115Z,12.93
2023-03-19T21:57:43.122Z,12.86
2023-03-19T22:00:11.325Z,12.78
2023-03-19T22:02:44.242Z,12.92
2023-03-19T22:05:20.989Z,12.97
2023-03-19T22:07:42.878Z,13.02
2023-03-19T22:10:04.653Z,13.20
2023-03-19T22:12:28.976Z,13.18
2023-03-19T22:14:50.498Z,13.05
2023-03-19T22:17:12.005Z,12.95
2023-03-19T22:19:33.462Z,13.02
2023-03-19T22:21:55.302Z,12.94
2023-03-19T22:24:16.777Z,13.01
2023-03-19T22:26:40.874Z,13.02
2023-03-19T22:29:06.546Z,13.12
2023-03-19T22:31:28.807Z,13.09
2023-03-19T22:33:51.094Z,13.08
2023-03-19T22:36:14.919Z,12.93
2023-03-19T22:38:36.370Z,12.65
2023-03-19T22:40:57.913Z,12.48
2023-03-19T22:43:27.975Z,12.42
2023-03-19T22:45:55.130Z,12.45
2023-03-19T22:48:18.012Z,12.25
2023-03-19T22:50:39.465Z,12.03
2023-03-19T22:53:01.124Z,12.22
2023-03-19T22:55:23.404Z,12.28
2023-03-19T22:57:45.765Z,12.41
2023-03-19T23:00:14.261Z,12.34
2023-03-19T23:02:36.377Z,12.23
2023-03-19T23:04:57.858Z,12.21
2023-03-19T23:07:19.416Z,12.11
2023-03-19T23:09:41.799Z,11.99
2023-03-19T23:12:04.222Z,12.18
2023-03-19T23:14:30.986Z,12.31
2023-03-19T23:16:53.330Z,12.38
2023-03-19T23:19:35.217Z,12.52
2023-03-19T23:21:58.766Z,12.61
2023-03-19T23:24:21.028Z,12.69
2023-03-19T23:26:45.049Z,12.56
2023-03-19T23:29:06.809Z,12.71
2023-03-19T23:31:28.687Z,12.75
2023-03-19T23:33:50.162Z,12.77
2023-03-19T23:36:12.422Z,12.72
2023-03-19T23:38:33.866Z,12.69
2023-03-19T23:40:55.357Z,12.65
2023-03-19T23:43:27.277Z,12.70
2023-03-19T23:45:51.343Z,12.74
2023-03-19T23:48:16.311Z,12.78
2023-03-19T23:50:38.132Z,12.83
2023-03-19T23:53:00.164Z,12.85
2023-03-19T23:55:22.458Z,12.93
2023-03-19T23:57:44.411Z,12.94
